Time;durP1;ratioP1;P1;durP2;ratioP2;P2;SDS_P1;SDS_P2;PMS_P1;PMS_P2;Temp;Humidity;BMP_temperature;BMP_pressure;BME280_temperature;BME280_humidity;BME280_pressure;Samples;Min_cycle;Max_cycle;Signal;HPM_P1;HPM_P2
2021/10/21 00:00:08;;;;;;;6.15;4.70;;;15.40;99.90;;;15.72;94.89;98563.97;4843212;29;20104;-72
2021/10/21 00:02:39;;;;;;;9.00;4.82;;;15.40;99.90;;;15.64;93.66;98549.44;4842248;29;20469;-72
2021/10/21 00:05:09;;;;;;;11.48;4.78;;;15.40;99.90;;;15.46;93.94;98526.59;4843327;29;20046;-72
2021/10/21 00:07:37;;;;;;;7.57;4.00;;;15.30;99.90;;;15.27;93.33;98535.66;4843117;29;20449;-72
2021/10/21 00:10:07;;;;;;;8.57;4.15;;;15.20;99.90;;;15.05;93.88;98529.94;4843328;29;20449;-72
2021/10/21 00:12:35;;;;;;;8.02;3.80;;;15.10;99.90;;;15.00;94.25;98549.78;4843054;29;20053;-72
2021/10/21 00:15:07;;;;;;;5.05;3.92;;;14.90;99.90;;;14.88;94.21;98623.22;4841709;29;20056;-72
2021/10/21 00:17:36;;;;;;;4.13;3.30;;;14.80;99.90;;;14.62;95.14;98588.41;4843289;29;20058;-72
2021/10/21 00:20:09;;;;;;;5.20;3.60;;;14.50;99.90;;;14.47;95.17;98560.88;4842939;29;20144;-73
2021/10/21 00:22:43;;;;;;;11.30;3.58;;;14.30;99.90;;;14.45;94.99;98586.72;4843092;29;20058;-73
2021/10/21 00:25:11;;;;;;;7.85;3.70;;;14.30;99.90;;;14.24;94.97;98555.97;4843019;29;20042;-72
2021/10/21 00:27:40;;;;;;;5.28;3.83;;;14.10;99.90;;;14.15;95.23;98564.47;4842819;29;20042;-71
2021/10/21 00:30:11;;;;;;;8.45;3.65;;;14.00;99.90;;;14.18;95.51;98558.97;4843025;29;20077;-72
2021/10/21 00:32:40;;;;;;;7.60;3.78;;;14.00;99.90;;;14.18;95.58;98543.88;4842625;29;20438;-71
2021/10/21 00:35:09;;;;;;;11.50;3.85;;;14.00;99.90;;;14.08;94.65;98557.78;4842693;29;20441;-71
2021/10/21 00:37:38;;;;;;;15.37;4.47;;;13.90;99.90;;;13.90;95.25;98556.97;4842978;29;20046;-71
2021/10/21 00:40:09;;;;;;;14.05;4.72;;;13.80;99.90;;;13.96;95.23;98543.34;4842894;29;20121;-72
2021/10/21 00:42:37;;;;;;;7.63;3.80;;;13.70;99.90;;;13.83;94.47;98512.22;4842631;29;20054;-72
2021/10/21 00:45:07;;;;;;;9.32;3.63;;;13.70;99.90;;;13.94;94.47;98520.47;4842841;29;20477;-72
2021/10/21 00:47:37;;;;;;;16.35;4.30;;;13.70;99.90;;;13.90;93.06;98513.63;4842626;29;20054;-71
2021/10/21 00:50:07;;;;;;;14.97;4.07;;;13.70;99.90;;;13.85;92.72;98499.72;4842317;29;20468;-77
2021/10/21 00:52:37;;;;;;;12.75;3.85;;;13.60;99.90;;;13.77;91.85;98493.97;4842537;29;20038;-76
2021/10/21 00:55:08;;;;;;;15.60;3.58;;;13.60;99.90;;;13.81;91.62;98522.97;4842463;29;20457;-75
2021/10/21 00:57:37;;;;;;;;;;;13.70;99.90;;;13.74;90.30;98496.81;4842243;29;20128;-76
2021/10/21 01:00:08;;;;;;;15.18;4.60;;;13.70;99.90;;;13.80;88.42;98547.78;4842390;29;19928;-76
2021/10/21 01:02:38;;;;;;;11.38;4.03;;;13.60;99.90;;;13.83;87.60;98542.31;4842427;29;20071;-74
2021/10/21 01:05:09;;;;;;;11.77;4.70;;;13.60;99.90;;;13.74;87.16;98552.59;4842301;29;20515;-76
2021/10/21 01:07:38;;;;;;;12.70;4.32;;;13.50;99.90;;;13.78;86.74;98541.69;4841371;29;20074;-75
2021/10/21 01:10:08;;;;;;;13.02;4.60;;;13.50;99.90;;;13.74;86.82;98508.31;4842340;29;20120;-75
2021/10/21 01:12:38;;;;;;;16.88;4.72;;;13.50;99.90;;;13.69;86.60;98520.09;4842596;29;20382;-75
2021/10/21 01:15:18;;;;;;;15.15;4.53;;;13.50;99.90;;;13.68;86.12;98502.47;4842584;29;20050;-75
2021/10/21 01:17:49;;;;;;;13.43;4.25;;;13.50;99.90;;;13.62;85.84;98516.94;4842523;29;20129;-75
2021/10/21 01:20:19;;;;;;;;;;;13.50;99.90;;;13.76;85.93;98517.06;4842698;29;20050;-74
2021/10/21 01:22:48;;;;;;;18.10;5.35;;;13.50;99.90;;;13.70;85.93;98519.16;4841229;29;19924;-74
2021/10/21 01:25:18;;;;;;;14.30;4.25;;;13.50;99.90;;;13.47;85.78;98443.41;4842562;29;20070;-75
2021/10/21 01:27:50;;;;;;;14.40;4.95;;;13.50;99.90;;;13.59;85.60;98504.66;4842470;29;20053;-74
2021/10/21 01:30:21;;;;;;;9.13;3.90;;;13.40;99.90;;;13.43;85.38;98498.47;4842436;29;20054;-75
2021/10/21 01:32:50;;;;;;;12.38;3.83;;;13.40;99.90;;;13.34;85.87;98472.41;4842190;29;20053;-75
2021/10/21 01:35:21;;;;;;;10.93;3.67;;;13.30;99.90;;;13.37;85.84;98504.13;4842081;29;20076;-75
2021/10/21 01:37:49;;;;;;;13.35;4.47;;;13.20;99.90;;;13.41;86.12;98510.97;4842138;29;20458;-75
2021/10/21 01:40:19;;;;;;;10.45;4.03;;;13.20;99.90;;;13.36;86.52;98510.38;4842052;29;20050;-76
2021/10/21 01:42:47;;;;;;;11.77;3.97;;;13.20;99.90;;;13.35;86.75;98523.72;4842055;29;20050;-76
2021/10/21 01:45:19;;;;;;;11.43;3.72;;;13.10;99.90;;;13.31;87.41;98519.50;4840640;29;20733;-75
2021/10/21 01:47:48;;;;;;;13.18;3.75;;;13.20;99.90;;;11.75;87.59;98266.97;4841998;29;20052;-75
2021/10/21 01:50:17;;;;;;;11.93;4.05;;;13.10;99.90;;;13.41;88.27;98520.75;4842183;29;20102;-76
2021/10/21 01:52:47;;;;;;;9.50;3.58;;;13.20;99.90;;;13.16;88.56;98494.63;4841884;29;20046;-75
2021/10/21 01:55:17;;;;;;;9.90;3.50;;;13.10;99.90;;;13.19;89.18;98491.81;4842567;29;20045;-75
2021/10/21 01:57:47;;;;;;;8.82;3.47;;;13.00;99.90;;;12.92;89.78;98458.75;4841864;29;20062;-75
2021/10/21 02:00:18;;;;;;;11.60;3.78;;;12.90;99.90;;;13.04;90.52;98486.47;4842202;29;20058;-75
2021/10/21 02:02:47;;;;;;;10.63;3.47;;;12.90;99.90;;;13.03;90.48;98498.88;4841980;29;20076;-76
2021/10/21 02:05:18;;;;;;;10.45;3.92;;;12.80;99.90;;;12.87;90.81;98475.84;4841779;29;20042;-75
2021/10/21 02:07:48;;;;;;;;;;;12.80;99.90;;;13.07;91.17;98473.91;4842351;29;20046;-75
2021/10/21 02:10:19;;;;;;;10.50;3.78;;;12.80;99.90;;;13.03;91.03;98477.63;4844750;29;19931;-75
2021/10/21 02:12:48;;;;;;;12.45;4.32;;;12.80;99.90;;;12.78;91.48;98440.03;4845216;29;20411;-75
2021/10/21 02:15:17;;;;;;;9.50;3.70;;;12.70;99.90;;;12.97;91.30;98464.66;4845017;29;20048;-75
2021/10/21 02:17:46;;;;;;;10.43;4.00;;;12.80;99.90;;;12.97;91.59;98456.69;4845236;29;20057;-75
2021/10/21 02:20:16;;;;;;;14.07;4.22;;;12.80;99.90;;;12.77;92.17;98414.47;4844979;29;20497;-75
2021/10/21 02:22:45;;;;;;;13.18;3.70;;;12.70;99.90;;;12.86;92.39;98447.59;4844994;29;20461;-75
2021/10/21 02:25:14;;;;;;;12.23;3.80;;;12.70;99.90;;;13.04;92.21;98442.22;4844866;29;20497;-75
2021/10/21 02:27:46;;;;;;;9.43;3.40;;;12.80;99.90;;;12.95;92.11;98421.44;4845427;29;20110;-75
2021/10/21 02:30:17;;;;;;;9.90;3.75;;;12.90;99.90;;;13.14;91.84;98443.41;4844891;29;20054;-75
2021/10/21 02:32:47;;;;;;;8.77;3.85;;;12.90;99.90;;;13.21;91.26;98433.34;4845090;29;20046;-75
2021/10/21 02:35:16;;;;;;;12.20;4.20;;;13.00;99.90;;;13.19;91.01;98398.06;4845006;29;20046;-75
2021/10/21 02:37:44;;;;;;;15.13;4.53;;;13.10;99.90;;;13.31;90.90;98487.66;4843730;29;20500;-75
2021/10/21 02:40:14;;;;;;;11.65;4.45;;;13.10;99.90;;;13.36;90.39;98428.06;4844618;29;20104;-75
2021/10/21 02:42:42;;;;;;;10.07;4.32;;;13.10;99.90;;;13.41;90.58;98415.38;4844908;29;20492;-75
2021/10/21 02:45:11;;;;;;;12.07;4.25;;;13.20;99.90;;;11.95;89.91;98165.31;4844335;29;20417;-75
2021/10/21 02:47:40;;;;;;;10.98;4.50;;;13.20;99.90;;;13.52;89.94;98420.97;4844785;29;20045;-75
2021/10/21 02:50:09;;;;;;;11.55;4.25;;;13.30;99.90;;;13.48;89.59;98405.28;4844451;29;20121;-75
2021/10/21 02:52:37;;;;;;;11.13;4.05;;;13.30;99.90;;;13.48;89.80;98419.44;4844431;29;20489;-74
2021/10/21 02:55:07;;;;;;;12.27;4.00;;;13.20;99.90;;;13.53;89.61;98414.72;4844381;29;20129;-75
2021/10/21 02:57:37;;;;;;;14.97;4.40;;;13.30;99.90;;;13.48;89.19;98416.78;4844435;29;20058;-75
2021/10/21 03:00:07;;;;;;;9.27;3.87;;;13.30;99.90;;;13.53;89.33;98414.72;4844651;29;20330;-74
2021/10/21 03:02:36;;;;;;;9.10;3.55;;;13.30;99.90;;;13.59;89.48;98409.06;4844302;29;20087;-75
2021/10/21 03:05:06;;;;;;;9.50;3.67;;;13.30;99.90;;;13.46;89.53;98389.44;4844202;29;20054;-75
2021/10/21 03:07:35;;;;;;;11.53;3.67;;;13.30;99.90;;;13.52;89.43;98390.91;4844414;29;20099;-75
2021/10/21 03:10:03;;;;;;;9.43;3.05;;;13.40;99.90;;;13.62;88.96;98393.88;4844166;29;20298;-75
2021/10/21 03:12:32;;;;;;;11.40;3.55;;;13.40;99.90;;;13.61;88.77;98394.84;4844084;29;20050;-75
2021/10/21 03:15:23;;;;;;;12.98;3.92;;;13.40;99.90;;;13.54;89.14;98403.16;4844482;29;20098;-75
2021/10/21 03:17:51;;;;;;;10.85;3.47;;;13.30;99.90;;;13.55;89.14;98407.50;4844059;29;20046;-75
2021/10/21 03:20:20;;;;;;;12.60;3.70;;;13.30;99.90;;;13.57;89.69;98396.78;4843405;29;20045;-75
2021/10/21 03:22:48;;;;;;;8.05;3.65;;;13.40;99.90;;;13.37;89.70;98392.63;4844138;29;20046;-75
2021/10/21 03:25:17;;;;;;;11.02;3.97;;;13.30;99.90;;;13.42;90.09;98392.34;4843852;29;20128;-75
2021/10/21 03:27:45;;;;;;;10.85;3.45;;;13.20;99.90;;;13.42;90.97;98401.19;4843999;29;20054;-75
2021/10/21 03:30:13;;;;;;;10.40;4.03;;;13.20;99.90;;;13.39;91.43;98397.84;4844066;29;20046;-75
2021/10/21 03:32:43;;;;;;;16.48;4.15;;;13.20;99.90;;;13.51;91.84;98410.44;4843998;29;20050;-75
2021/10/21 03:35:12;;;;;;;9.25;3.60;;;13.20;99.90;;;13.49;92.18;98418.47;4842715;29;20057;-75
2021/10/21 03:37:41;;;;;;;13.80;3.90;;;13.30;99.90;;;13.47;91.87;98395.63;4843636;29;20053;-74
2021/10/21 03:40:12;;;;;;;10.90;4.03;;;13.30;99.90;;;13.56;92.07;98419.88;4843864;29;20046;-74
2021/10/21 03:42:41;;;;;;;10.75;4.05;;;13.30;99.90;;;13.38;92.84;98391.66;4842608;29;20382;-75
2021/10/21 03:45:10;;;;;;;11.98;4.10;;;13.30;99.90;;;13.46;92.78;98409.81;4843880;29;20403;-75
2021/10/21 03:47:38;;;;;;;16.60;4.13;;;13.30;99.90;;;13.37;93.16;98397.94;4843698;29;20099;-75
2021/10/21 03:50:09;;;;;;;11.70;3.97;;;13.30;99.90;;;13.55;93.73;98420.78;4843450;29;20070;-74
2021/10/21 03:52:38;;;;;;;12.98;3.92;;;13.30;99.90;;;13.53;93.38;98417.38;4844004;29;20409;-74
2021/10/21 03:55:08;;;;;;;10.52;4.28;;;13.30;99.90;;;13.61;93.41;98405.47;4843883;29;20102;-74
2021/10/21 03:57:37;;;;;;;13.48;4.20;;;13.40;99.90;;;13.71;92.66;98443.84;4843491;29;20065;-74
2021/10/21 04:00:08;;;;;;;9.38;4.07;;;13.50;99.90;;;13.83;92.67;98452.00;4843299;29;20094;-74
2021/10/21 04:02:40;;;;;;;11.65;4.07;;;13.50;99.90;;;12.38;92.18;98208.00;4843502;29;20511;-74
2021/10/21 04:05:11;;;;;;;11.00;4.10;;;13.60;99.90;;;13.80;92.25;98492.00;4843424;29;20046;-74
2021/10/21 04:07:39;;;;;;;6.88;4.28;;;13.60;99.90;;;14.02;92.22;98528.88;4842075;29;20115;-74
2021/10/21 04:10:08;;;;;;;15.38;4.60;;;13.70;99.90;;;13.49;92.43;98558.38;4843321;29;20046;-71
2021/10/21 04:12:38;;;;;;;15.00;4.85;;;13.60;99.90;;;13.44;95.27;98600.22;4843297;29;20466;-71
2021/10/21 04:15:07;;;;;;;11.73;3.38;;;13.30;99.90;;;12.91;93.41;98615.38;4843388;29;20058;-74
2021/10/21 04:17:36;;;;;;;9.57;3.33;;;12.90;99.90;;;12.57;91.11;98611.72;4843514;29;20061;-74
2021/10/21 04:20:07;;;;;;;17.30;4.25;;;12.70;99.90;;;12.36;92.46;98649.00;4842944;29;20069;-74
2021/10/21 04:22:37;;;;;;;13.88;4.10;;;12.30;99.90;;;12.24;91.25;98660.16;4842867;29;20054;-72
2021/10/21 04:25:09;;;;;;;10.60;3.38;;;12.20;99.90;;;12.05;93.07;98654.00;4843415;29;20054;-72
2021/10/21 04:27:37;;;;;;;18.92;4.22;;;12.00;99.90;;;12.15;93.67;98706.53;4842783;29;20054;-71
2021/10/21 04:30:08;;;;;;;23.75;4.30;;;12.00;99.90;;;12.03;95.25;98717.66;4842797;29;20479;-71
2021/10/21 04:32:36;;;;;;;24.33;4.60;;;11.90;99.90;;;11.88;93.73;98691.00;4842552;29;20042;-72
2021/10/21 04:35:06;;;;;;;26.60;4.90;;;11.90;99.90;;;11.55;93.11;98725.94;4841727;29;20050;-72
2021/10/21 04:37:35;;;;;;;21.50;4.90;;;11.70;99.90;;;11.45;93.33;98721.09;4842941;29;20054;-72
2021/10/21 04:40:07;;;;;;;29.45;5.57;;;11.60;99.90;;;11.76;94.51;98785.97;4842610;29;20057;-72
2021/10/21 04:42:36;;;;;;;32.45;5.65;;;11.70;99.90;;;11.90;95.38;98797.75;4842939;29;20042;-72
2021/10/21 04:45:05;;;;;;;25.50;6.07;;;11.80;99.90;;;11.97;95.53;98865.41;4842501;29;20573;-72
2021/10/21 04:47:34;;;;;;;33.72;6.20;;;11.80;99.90;;;11.92;96.27;98855.03;4842452;29;20481;-71
2021/10/21 04:50:03;;;;;;;42.50;6.93;;;11.80;99.90;;;11.94;96.96;98863.78;4842517;29;20109;-71
2021/10/21 04:52:31;;;;;;;29.75;5.63;;;11.80;99.90;;;11.77;95.27;98856.53;4843038;29;20042;-72
2021/10/21 04:55:00;;;;;;;21.88;5.78;;;11.80;99.90;;;11.97;94.40;98915.75;4842476;29;20077;-71
2021/10/21 04:57:30;;;;;;;26.85;6.15;;;11.80;99.90;;;11.93;92.92;98945.94;4842210;29;20062;-71
2021/10/21 04:59:58;;;;;;;28.17;5.40;;;11.80;99.90;;;12.03;91.50;98961.41;4842683;29;20087;-71
2021/10/21 05:02:26;;;;;;;19.08;4.88;;;11.90;99.90;;;12.07;90.76;98980.69;4841358;29;20144;-72
2021/10/21 05:04:55;;;;;;;18.10;5.43;;;11.90;99.90;;;12.24;89.19;98986.16;4842818;29;20458;-71
2021/10/21 05:07:23;;;;;;;22.40;5.43;;;12.10;99.90;;;12.44;88.47;99012.72;4842245;29;20132;-71
2021/10/21 05:09:52;;;;;;;23.88;5.30;;;12.30;99.90;;;12.39;87.67;99006.72;4842206;29;20102;-72
2021/10/21 05:12:20;;;;;;;24.40;5.95;;;12.30;99.90;;;12.62;86.70;99051.72;4842244;29;20049;-72
2021/10/21 05:14:52;;;;;;;25.55;5.45;;;12.50;99.90;;;12.45;87.56;99057.72;4842099;29;20553;-71
2021/10/21 05:17:21;;;;;;;29.52;6.10;;;12.40;99.90;;;12.38;88.21;99053.59;4842405;29;20156;-71
2021/10/21 05:19:49;;;;;;;34.72;6.22;;;12.40;99.90;;;12.45;88.06;99062.16;4842377;29;20048;-71
2021/10/21 05:22:18;;;;;;;25.55;5.38;;;12.40;99.90;;;12.72;87.89;99103.47;4841134;29;20106;-71
2021/10/21 05:24:47;;;;;;;26.25;5.55;;;12.50;99.90;;;12.55;87.51;99125.38;4841146;29;20508;-71
2021/10/21 05:27:15;;;;;;;21.98;5.28;;;12.50;99.90;;;12.65;87.17;99112.59;4842274;29;20074;-71
2021/10/21 05:29:44;;;;;;;22.77;5.47;;;12.60;99.90;;;12.70;86.69;99140.66;4842132;29;20070;-72
2021/10/21 05:32:13;;;;;;;27.33;5.97;;;12.60;99.90;;;12.82;85.45;99149.03;4842031;29;20505;-71
2021/10/21 05:34:45;;;;;;;24.40;5.70;;;12.70;99.90;;;12.91;84.70;99156.66;4842282;29;20136;-71
2021/10/21 05:37:14;;;;;;;25.52;5.60;;;12.80;99.90;;;12.96;82.92;99178.53;4842236;29;20389;-72
2021/10/21 05:39:42;;;;;;;25.98;6.13;;;12.80;99.90;;;13.04;81.72;99193.25;4840948;29;20042;-71
2021/10/21 05:42:11;;;;;;;23.35;4.93;;;12.90;99.90;;;13.08;79.56;99205.47;4842227;29;20049;-71
2021/10/21 05:44:40;;;;;;;18.50;5.30;;;12.90;99.90;;;12.85;75.67;99200.22;4844470;29;20400;-71
2021/10/21 05:47:10;;;;;;;18.88;5.20;;;12.90;99.90;;;12.89;73.59;99190.34;4845724;29;20038;-71
2021/10/21 05:49:40;;;;;;;22.23;4.93;;;12.90;99.90;;;12.95;72.85;99217.47;4845506;29;20504;-71
2021/10/21 05:52:09;;;;;;;19.80;4.68;;;13.00;99.90;;;13.14;72.80;99273.38;4845819;29;20123;-72
2021/10/21 05:54:38;;;;;;;16.75;4.30;;;13.00;99.90;;;13.09;70.24;99262.94;4845625;29;20107;-71
2021/10/21 05:57:06;;;;;;;26.00;5.63;;;13.00;99.90;;;13.37;70.04;99294.53;4845385;29;20053;-72
2021/10/21 05:59:34;;;;;;;16.83;5.20;;;13.10;99.90;;;13.34;70.89;99311.47;4845957;29;20050;-72
2021/10/21 06:02:03;;;;;;;19.67;4.55;;;13.10;99.90;;;13.19;71.57;99288.19;4845211;29;20045;-72
2021/10/21 06:04:32;;;;;;;21.00;5.13;;;13.10;99.90;;;13.35;72.29;99310.53;4843900;29;20061;-72
2021/10/21 06:07:02;;;;;;;29.08;5.63;;;13.20;99.90;;;13.34;72.10;99313.25;4845460;29;20114;-72
2021/10/21 06:09:31;;;;;;;18.08;5.30;;;13.20;99.90;;;13.50;72.58;99339.13;4845332;29;20120;-72
2021/10/21 06:11:59;;;;;;;18.70;5.00;;;13.30;99.90;;;13.45;73.20;99351.72;4845161;29;20564;-72
2021/10/21 06:14:31;;;;;;;32.80;5.95;;;13.30;99.90;;;13.54;75.52;99361.13;4845022;29;20049;-72
2021/10/21 06:16:59;;;;;;;32.05;5.78;;;13.40;99.90;;;13.36;80.01;99368.03;4845393;29;20099;-72
2021/10/21 06:19:29;;;;;;;27.90;6.35;;;13.20;99.90;;;13.16;81.38;99354.66;4845060;29;20046;-72
2021/10/21 06:22:04;;;;;;;26.70;6.25;;;13.20;99.90;;;13.23;80.23;99403.09;4844986;29;20049;-73
2021/10/21 06:24:34;;;;;;;23.05;6.28;;;13.20;99.90;;;12.95;78.79;99397.91;4845022;29;20042;-72
2021/10/21 06:27:02;;;;;;;25.93;4.80;;;12.90;99.90;;;12.93;77.37;99406.88;4845539;29;20042;-72
2021/10/21 06:29:31;;;;;;;20.42;6.18;;;12.90;99.90;;;12.84;77.27;99423.13;4845150;29;20053;-73
2021/10/21 06:32:01;;;;;;;17.13;5.72;;;12.80;99.90;;;12.96;77.40;99439.47;4844794;29;20046;-72
2021/10/21 06:34:29;;;;;;;21.73;4.88;;;12.80;99.90;;;12.96;76.81;99462.50;4844820;29;20077;-72
2021/10/21 06:36:58;;;;;;;27.08;5.75;;;12.80;99.90;;;12.88;76.59;99476.03;4844643;29;20450;-73
2021/10/21 06:39:26;;;;;;;16.83;5.50;;;12.80;99.90;;;13.08;75.93;99478.88;4845016;29;20046;-73
2021/10/21 06:41:56;;;;;;;16.25;5.10;;;12.90;99.90;;;12.92;74.53;99480.31;4843647;29;20084;-73
2021/10/21 06:44:24;;;;;;;18.17;4.87;;;12.80;99.90;;;12.74;71.93;99480.13;4844734;29;20045;-72
2021/10/21 06:46:53;;;;;;;20.10;5.20;;;12.70;99.90;;;12.77;70.56;99512.72;4844798;29;20306;-72
2021/10/21 06:49:21;;;;;;;15.55;5.25;;;12.70;99.90;;;12.36;68.40;99473.47;4844284;29;20046;-72
2021/10/21 06:51:50;;;;;;;21.25;4.97;;;12.50;99.90;;;12.67;67.93;99528.09;4844169;29;20057;-72
2021/10/21 06:54:18;;;;;;;18.48;4.75;;;12.60;99.90;;;12.65;66.70;99540.53;4843378;29;20057;-72
2021/10/21 06:56:47;;;;;;;17.83;5.10;;;12.50;99.90;;;12.73;66.51;99550.88;4843811;29;20050;-72
2021/10/21 06:59:16;;;;;;;16.75;5.32;;;12.50;99.90;;;12.70;67.92;99545.66;4844729;29;20065;-72
2021/10/21 07:01:45;;;;;;;24.03;4.70;;;12.70;99.90;;;12.84;69.30;99572.59;4844633;29;20050;-73
2021/10/21 07:04:14;;;;;;;16.25;5.00;;;12.70;99.90;;;12.92;69.20;99594.44;4843284;29;20053;-69
2021/10/21 07:06:42;;;;;;;15.52;5.28;;;12.80;99.90;;;12.72;69.16;99567.69;4844481;29;20046;-73
2021/10/21 07:09:11;;;;;;;18.40;5.22;;;12.70;99.90;;;12.86;69.19;99591.13;4844073;29;20046;-73
2021/10/21 07:11:39;;;;;;;16.08;4.93;;;12.80;99.90;;;12.79;67.94;99589.59;4844131;29;20106;-75
2021/10/21 07:14:07;;;;;;;17.02;5.53;;;12.70;99.90;;;12.84;68.06;99608.88;4844224;29;20133;-73
2021/10/21 07:16:37;;;;;;;14.13;4.75;;;12.70;99.90;;;12.96;67.55;99612.00;4844327;29;20052;-73
2021/10/21 07:19:07;;;;;;;15.50;4.65;;;12.80;99.90;;;13.31;68.24;99640.00;4844289;29;20060;-73
2021/10/21 07:21:35;;;;;;;14.85;5.20;;;13.10;99.90;;;13.63;67.46;99653.00;4843954;29;20056;-73
2021/10/21 07:24:06;;;;;;;14.73;5.18;;;13.40;99.90;;;13.96;67.47;99653.53;4844236;29;20057;-73
2021/10/21 07:26:35;;;;;;;12.40;4.20;;;13.70;99.90;;;13.78;66.51;99664.88;4842916;29;20050;-73
2021/10/21 07:29:04;;;;;;;20.88;5.45;;;13.70;99.90;;;13.88;67.17;99676.91;4842750;29;20465;-73
2021/10/21 07:31:32;;;;;;;12.45;4.32;;;13.70;99.90;;;13.85;67.63;99683.19;4843799;29;20050;-74
2021/10/21 07:34:02;;;;;;;16.40;5.28;;;13.70;99.90;;;13.92;67.93;99692.66;4843712;29;20070;-74
2021/10/21 07:36:31;;;;;;;15.17;4.77;;;13.70;99.90;;;13.79;69.22;99706.47;4842774;29;20083;-76
2021/10/21 07:38:59;;;;;;;18.60;5.03;;;13.60;99.90;;;13.30;73.32;99718.78;4843925;29;20084;-80
2021/10/21 07:41:28;;;;;;;16.85;5.25;;;13.30;99.90;;;13.14;75.63;99714.91;4843899;29;20261;-71
2021/10/21 07:43:56;;;;;;;16.67;5.25;;;13.00;99.90;;;12.79;76.47;99714.31;4843606;29;20083;-75
2021/10/21 07:46:25;;;;;;;16.10;4.45;;;12.80;99.90;;;12.97;76.12;99730.50;4843953;29;20050;-74
2021/10/21 07:48:53;;;;;;;16.38;4.32;;;12.80;99.90;;;12.70;77.34;99728.72;4843425;29;20509;-75
2021/10/21 07:51:23;;;;;;;21.13;5.03;;;12.70;99.90;;;12.57;79.36;99714.97;4843723;29;20071;-76
2021/10/21 07:53:52;;;;;;;20.35;4.88;;;12.50;99.90;;;12.84;79.78;99752.16;4843422;29;20054;-76
2021/10/21 07:56:20;;;;;;;17.33;5.03;;;12.60;99.90;;;13.00;80.45;99734.84;4843353;29;20049;-76
2021/10/21 07:58:49;;;;;;;21.05;5.70;;;12.80;99.90;;;12.87;79.97;99776.84;4843665;29;20073;-71
2021/10/21 08:01:18;;;;;;;16.25;4.50;;;12.70;99.90;;;12.82;79.62;99732.78;4843800;29;20043;-72
2021/10/21 08:03:47;;;;;;;14.38;4.95;;;12.80;99.90;;;12.94;79.04;99773.06;4843518;29;20057;-73
2021/10/21 08:06:15;;;;;;;16.35;4.47;;;12.80;99.90;;;12.98;79.12;99768.53;4843069;29;20164;-72
2021/10/21 08:08:45;;;;;;;15.35;5.15;;;12.80;99.90;;;13.02;78.98;99763.09;4843612;29;20469;-84
2021/10/21 08:11:14;;;;;;;11.52;4.30;;;12.90;99.90;;;13.11;79.45;99797.31;4843381;29;20049;-81
2021/10/21 08:13:43;;;;;;;20.10;5.95;;;12.90;99.90;;;13.05;79.47;99788.69;4842964;29;20130;-80
2021/10/21 08:16:11;;;;;;;14.85;4.82;;;12.90;99.90;;;12.93;79.61;99773.97;4843601;29;20523;-79
2021/10/21 08:18:40;;;;;;;14.93;4.40;;;12.90;99.90;;;13.14;79.84;99810.50;4843466;29;20042;-78
2021/10/21 08:21:08;;;;;;;13.48;5.22;;;13.00;99.90;;;12.90;81.10;99773.22;4842905;29;20504;-78
2021/10/21 08:23:37;;;;;;;18.30;5.15;;;13.00;99.90;;;13.13;80.95;99806.13;4842920;29;20079;-80
2021/10/21 08:26:07;;;;;;;17.98;5.15;;;13.00;99.90;;;12.98;81.86;99782.69;4843150;29;20050;-82
2021/10/21 08:28:35;;;;;;;15.43;4.90;;;13.00;99.90;;;12.90;83.30;99813.91;4843163;29;20054;-84
2021/10/21 08:31:04;;;;;;;21.75;5.10;;;12.80;99.90;;;12.92;83.54;99828.00;4842809;29;20501;-83
2021/10/21 08:33:32;;;;;;;16.38;4.82;;;12.80;99.90;;;12.50;84.18;99768.28;4842755;29;20124;-69
2021/10/21 08:36:01;;;;;;;16.45;4.80;;;12.70;99.90;;;12.86;84.85;99820.22;4842639;29;20066;-80
2021/10/21 08:38:29;;;;;;;14.05;4.97;;;12.60;99.90;;;12.88;85.37;99836.06;4842871;29;20050;-78
2021/10/21 08:41:00;;;;;;;18.50;4.78;;;12.70;99.90;;;12.92;85.30;99821.81;4843180;29;20048;-77
2021/10/21 08:43:29;;;;;;;24.63;4.97;;;12.80;99.90;;;12.82;84.47;99815.91;4842657;29;20106;-77
2021/10/21 08:45:59;;;;;;;;;;;12.90;99.90;;;12.73;84.18;99841.84;4842108;29;20110;-80
2021/10/21 08:48:29;;;;;;;13.35;4.75;;;12.60;99.90;;;12.82;83.09;99850.41;4842550;29;19960;-74
2021/10/21 08:50:59;;;;;;;16.33;5.20;;;12.70;99.90;;;12.67;83.47;99819.03;4842647;29;20075;-71
2021/10/21 08:53:27;;;;;;;14.95;4.78;;;12.70;99.90;;;13.02;82.92;99869.25;4842544;29;20452;-78
2021/10/21 08:55:57;;;;;;;14.35;5.07;;;12.80;99.90;;;12.96;82.29;99879.19;4842609;29;20046;-80
2021/10/21 08:58:27;;;;;;;20.38;5.13;;;12.90;99.90;;;12.99;83.09;99849.91;4842647;29;20065;-77
2021/10/21 09:01:02;;;;;;;14.23;4.47;;;12.90;99.90;;;12.83;83.00;99870.75;4842742;29;20046;-75
2021/10/21 09:04:00;;;;;;;17.05;4.20;;;12.80;99.90;;;12.98;83.23;99891.50;4842997;29;20048;-78
2021/10/21 09:06:48;;;;;;;22.30;5.65;;;12.80;99.90;;;13.04;82.93;99909.94;4842588;29;20057;-77
2021/10/21 09:09:21;;;;;;;14.00;4.57;;;12.90;99.90;;;13.16;82.63;99898.94;4842823;29;20046;-74
2021/10/21 09:12:02;;;;;;;14.57;4.80;;;13.00;99.90;;;12.97;81.49;99862.38;4842344;29;20061;-78
2021/10/21 09:14:35;;;;;;;22.60;5.30;;;13.10;99.90;;;13.27;80.21;99914.56;4841247;29;20049;-77
2021/10/21 09:17:07;;;;;;;14.75;5.00;;;13.10;99.90;;;13.41;80.25;99910.53;4842582;29;20058;-73
2021/10/21 09:19:36;;;;;;;17.27;5.50;;;13.20;99.90;;;13.23;78.83;99891.66;4845128;29;20069;-74
2021/10/21 09:22:08;;;;;;;22.15;4.70;;;13.20;99.90;;;13.35;78.29;99929.34;4846214;29;20046;-73
2021/10/21 09:24:40;;;;;;;20.95;5.55;;;13.20;99.90;;;13.55;77.98;99942.84;4845951;29;20501;-79
2021/10/21 09:27:11;;;;;;;15.85;4.55;;;13.30;99.90;;;12.57;77.24;99802.50;4845864;29;20054;-75
2021/10/21 09:29:42;;;;;;;13.07;4.65;;;13.30;99.90;;;13.18;78.39;99928.13;4845914;29;20437;-76
2021/10/21 09:32:15;;;;;;;17.77;5.05;;;13.20;99.90;;;13.04;79.24;99931.19;4845955;29;20381;-76
2021/10/21 09:34:55;;;;;;;10.52;4.50;;;13.10;99.90;;;12.97;80.21;99937.53;4845898;29;20389;-76
2021/10/21 09:37:26;;;;;;;12.57;4.07;;;13.00;99.90;;;13.08;78.22;99975.31;4845153;29;20049;-76
2021/10/21 09:39:58;;;;;;;16.65;4.55;;;12.90;99.90;;;13.16;77.87;99981.25;4846314;29;20061;-75
2021/10/21 09:42:29;;;;;;;13.50;3.92;;;13.00;99.90;;;12.85;78.65;99940.56;4845778;29;20053;-79
2021/10/21 09:45:20;;;;;;;13.90;4.70;;;12.90;99.90;;;13.05;76.90;99988.66;4846135;29;20050;-76
2021/10/21 09:47:53;;;;;;;13.55;4.43;;;12.90;99.90;;;12.96;77.14;99965.00;4843458;29;20054;-76
2021/10/21 09:50:26;;;;;;;12.50;4.88;;;12.90;99.90;;;13.19;77.55;99996.22;4845761;29;20436;-76
2021/10/21 09:53:10;;;;;;;18.42;4.78;;;13.00;99.90;;;13.19;77.49;99981.16;4846050;29;20045;-76
2021/10/21 09:55:39;;;;;;;20.58;4.78;;;13.10;99.90;;;13.37;76.96;100003.66;4845538;29;20086;-76
2021/10/21 09:58:10;;;;;;;12.65;4.28;;;13.20;99.90;;;12.97;74.13;99907.50;4845453;29;20182;-77
2021/10/21 10:00:41;;;;;;;12.48;3.85;;;13.30;99.90;;;13.63;72.83;99997.56;4845440;29;20622;-76
2021/10/21 10:03:17;;;;;;;14.07;4.47;;;13.40;99.90;;;14.02;72.32;100004.28;4845280;29;20042;-76
2021/10/21 10:05:48;;;;;;;11.95;4.03;;;13.80;99.90;;;11.92;70.46;99611.88;4845338;29;20042;-77
2021/10/21 10:08:18;;;;;;;17.33;4.20;;;14.10;99.90;;;14.32;72.23;99985.53;4845518;29;20416;-78
2021/10/21 10:10:49;;;;;;;15.45;4.18;;;14.20;99.90;;;14.34;72.00;99999.66;4845219;29;20054;-77
2021/10/21 10:13:20;;;;;;;18.02;4.45;;;14.20;99.90;;;14.06;74.20;99982.84;4844171;29;20054;-77
2021/10/21 10:15:51;;;;;;;13.43;3.80;;;14.00;99.90;;;13.72;76.32;99986.66;4845224;29;20046;-76
2021/10/21 10:18:23;;;;;;;15.70;4.47;;;13.60;99.90;;;13.75;79.57;99998.03;4845397;29;20050;-76
2021/10/21 10:21:07;;;;;;;17.58;4.35;;;13.50;99.90;;;13.81;79.96;99978.38;4844169;29;20412;-77
2021/10/21 10:23:40;;;;;;;17.38;4.75;;;13.70;99.90;;;13.88;80.36;99924.97;4845014;29;20110;-77
2021/10/21 10:26:09;;;;;;;22.20;5.28;;;14.10;99.90;;;14.31;79.55;100017.53;4844983;29;20069;-77